Terminal Aerodrome Forecast
Issued by NWS

Home | Current Version | Previous Version | Text Only | Print | Product List | Glossary On
Versions: 1 2 3 4 5 6 7 8 9 10 11 12
000
FTUS45 KGJT 251729
TAFCNY
TAF
KCNY 251729Z 2518/2618 27012KT P6SM BKN200
     FM252100 26015G26KT P6SM BKN150
     FM260100 29018G32KT P6SM BKN200
     FM260300 30013G24KT P6SM BKN200
     FM260600 VRB05KT P6SM BKN200
     FM261500 16007KT P6SM SCT200=

USA.gov is the U.S. government's official web portal to all federal, state and local government web resources and services.